createdAt,value
2018-12-13T00:01:32.287Z,14.77
2018-12-13T00:04:00.713Z,15.23
2018-12-13T00:06:33.398Z,15.47
2018-12-13T00:08:59.608Z,15.57
2018-12-13T00:11:29.381Z,14.83
2018-12-13T00:13:57.806Z,14.37
2018-12-13T00:16:26.259Z,14.73
2018-12-13T00:18:54.676Z,15.90
2018-12-13T00:21:23.118Z,15.20
2018-12-13T00:23:51.553Z,16.10
2018-12-13T00:26:20.000Z,14.60
2018-12-13T00:28:48.425Z,15.57
2018-12-13T00:31:16.869Z,15.27
2018-12-13T00:33:45.289Z,15.60
2018-12-13T00:36:13.744Z,15.87
2018-12-13T00:38:42.183Z,16.23
2018-12-13T00:41:10.731Z,15.53
2018-12-13T00:43:39.161Z,15.83
2018-12-13T00:46:07.611Z,15.20
2018-12-13T00:48:36.051Z,15.30
2018-12-13T00:51:04.552Z,15.20
2018-12-13T00:53:32.984Z,16.20
2018-12-13T00:56:01.427Z,16.27
2018-12-13T00:58:29.853Z,16.33
2018-12-13T01:01:00.013Z,15.93
2018-12-13T01:03:29.143Z,16.10
2018-12-13T01:05:57.704Z,16.83
2018-12-13T01:08:26.128Z,15.60
2018-12-13T01:10:54.555Z,16.23
2018-12-13T01:13:22.998Z,16.13
2018-12-13T01:15:51.420Z,17.10
2018-12-13T01:18:19.899Z,16.80
2018-12-13T01:20:48.342Z,16.70
2018-12-13T01:23:17.065Z,17.17
2018-12-13T01:25:45.500Z,18.03
2018-12-13T01:28:13.948Z,17.30
2018-12-13T01:30:42.421Z,17.77
2018-12-13T01:33:10.864Z,18.30
2018-12-13T01:35:39.285Z,17.97
2018-12-13T01:38:07.736Z,18.10
2018-12-13T01:40:36.162Z,17.90
2018-12-13T01:43:04.667Z,18.33
2018-12-13T01:45:33.153Z,18.60
2018-12-13T01:48:01.601Z,18.40
2018-12-13T01:50:30.023Z,18.83
2018-12-13T01:52:58.471Z,18.47
2018-12-13T01:55:27.325Z,17.90
2018-12-13T01:57:55.772Z,18.57
2018-12-13T02:00:24.205Z,18.23
2018-12-13T02:02:52.648Z,18.70
2018-12-13T02:05:21.073Z,18.47
2018-12-13T02:07:49.521Z,19.07
2018-12-13T02:10:17.941Z,19.33
2018-12-13T02:12:46.391Z,19.87
2018-12-13T02:15:14.968Z,20.07
2018-12-13T02:17:43.408Z,19.00
2018-12-13T02:20:11.883Z,20.70
2018-12-13T02:22:40.341Z,18.97
2018-12-13T02:25:08.832Z,20.73
2018-12-13T02:27:37.279Z,19.73
2018-12-13T02:30:06.413Z,20.57
2018-12-13T02:32:34.870Z,21.33
2018-12-13T02:35:03.301Z,19.50
2018-12-13T02:37:31.757Z,20.23
2018-12-13T02:40:00.186Z,20.47
2018-12-13T02:42:28.638Z,20.37
2018-12-13T02:44:57.057Z,20.90
2018-12-13T02:47:25.927Z,20.73
2018-12-13T02:49:54.354Z,21.27
2018-12-13T02:52:22.808Z,21.23
2018-12-13T02:54:51.237Z,20.93
2018-12-13T02:57:19.694Z,19.30
2018-12-13T02:59:48.121Z,21.20
2018-12-13T03:02:16.575Z,20.67
2018-12-13T03:04:45.062Z,19.40
2018-12-13T03:07:14.526Z,20.03
2018-12-13T03:09:43.122Z,20.50
2018-12-13T03:12:11.551Z,19.57
2018-12-13T03:14:39.992Z,19.13
2018-12-13T03:17:08.436Z,20.53
2018-12-13T03:19:36.912Z,18.53
2018-12-13T03:22:05.396Z,19.47
2018-12-13T03:24:33.844Z,17.97
2018-12-13T03:27:02.303Z,18.60
2018-12-13T03:29:31.470Z,19.03
2018-12-13T03:31:59.888Z,19.10
2018-12-13T03:34:28.335Z,17.27
2018-12-13T03:36:56.766Z,16.23
2018-12-13T03:39:25.211Z,16.97
2018-12-13T03:41:54.448Z,16.87
2018-12-13T03:44:22.891Z,16.33
2018-12-13T03:46:51.314Z,16.67
2018-12-13T03:49:19.777Z,16.87
2018-12-13T03:51:48.216Z,16.73
2018-12-13T03:54:16.717Z,15.07
2018-12-13T03:56:45.144Z,16.27
2018-12-13T03:59:13.597Z,15.73
2018-12-13T04:01:42.028Z,14.70
2018-12-13T04:04:11.002Z,14.13
2018-12-13T04:06:39.434Z,15.00
2018-12-13T04:09:07.887Z,16.23
2018-12-13T04:11:36.315Z,14.07
2018-12-13T04:14:04.819Z,14.93
2018-12-13T04:16:33.250Z,14.07
2018-12-13T04:19:01.717Z,15.97
2018-12-13T04:21:30.169Z,14.23
2018-12-13T04:23:58.618Z,13.93
2018-12-13T04:26:27.056Z,14.83
2018-12-13T04:28:55.508Z,14.27
2018-12-13T04:31:23.940Z,14.13
2018-12-13T04:33:52.381Z,14.03
2018-12-13T04:36:21.638Z,16.47
2018-12-13T04:38:50.079Z,14.40
2018-12-13T04:41:18.514Z,15.40
2018-12-13T04:43:46.961Z,15.53
2018-12-13T04:46:15.396Z,14.83
2018-12-13T04:48:43.851Z,15.67
2018-12-13T04:51:12.268Z,15.83
2018-12-13T04:53:40.714Z,14.20
2018-12-13T04:56:09.134Z,14.13
2018-12-13T04:58:38.285Z,15.83
2018-12-13T05:01:06.723Z,14.70
2018-12-13T05:03:35.168Z,15.17
2018-12-13T05:06:03.601Z,15.40
2018-12-13T05:08:32.042Z,14.57
2018-12-13T05:11:01.376Z,15.00
2018-12-13T05:13:29.837Z,15.47
2018-12-13T05:15:58.269Z,14.37
2018-12-13T05:18:26.710Z,14.67
2018-12-13T05:20:55.134Z,15.20
2018-12-13T05:23:23.578Z,15.43
2018-12-13T05:25:52.013Z,15.60
2018-12-13T05:28:20.443Z,15.93
2018-12-13T05:30:48.886Z,13.60
2018-12-13T05:33:17.623Z,13.90
2018-12-13T05:35:46.065Z,15.73
2018-12-13T05:38:14.494Z,15.67
2018-12-13T05:40:42.932Z,15.07
2018-12-13T05:43:11.360Z,15.80
2018-12-13T05:45:40.648Z,16.13
2018-12-13T05:48:09.076Z,16.67
2018-12-13T05:50:37.525Z,16.93
2018-12-13T05:53:05.947Z,16.20
2018-12-13T05:55:34.391Z,16.23
2018-12-13T05:58:02.829Z,15.93
2018-12-13T06:00:31.274Z,17.10
2018-12-13T06:02:59.693Z,18.10
2018-12-13T06:05:28.137Z,17.97
2018-12-13T06:07:57.207Z,18.80
2018-12-13T06:10:25.647Z,18.27
2018-12-13T06:12:54.075Z,17.53
2018-12-13T06:15:22.532Z,18.50
2018-12-13T06:17:50.962Z,18.87
2018-12-13T06:20:19.414Z,18.20
2018-12-13T06:22:47.832Z,17.67
2018-12-13T06:25:16.275Z,18.37
2018-12-13T06:27:44.701Z,19.87
2018-12-13T06:30:13.150Z,18.30
2018-12-13T06:32:41.569Z,18.30
2018-12-13T06:35:10.069Z,18.90
2018-12-13T06:37:38.497Z,20.87
2018-12-13T06:40:07.576Z,19.37
2018-12-13T06:42:36.002Z,20.07
2018-12-13T06:45:04.900Z,21.63
2018-12-13T06:47:33.324Z,19.73
2018-12-13T06:50:01.766Z,22.23
2018-12-13T06:52:30.230Z,21.17
2018-12-13T06:54:58.674Z,21.23
2018-12-13T06:57:27.101Z,21.47
2018-12-13T06:59:55.546Z,21.43
2018-12-13T07:02:23.976Z,21.67
2018-12-13T07:04:52.429Z,21.87
2018-12-13T07:07:20.863Z,23.10
2018-12-13T07:09:49.296Z,23.30
2018-12-13T07:12:18.448Z,22.80
2018-12-13T07:14:46.894Z,23.03
2018-12-13T07:17:15.540Z,24.33
2018-12-13T07:19:43.982Z,23.10
2018-12-13T07:22:12.408Z,22.67
2018-12-13T07:24:40.886Z,22.93
2018-12-13T07:27:09.309Z,23.37
2018-12-13T07:29:37.799Z,24.43
2018-12-13T07:32:06.220Z,23.97
2018-12-13T07:34:34.664Z,24.97
2018-12-13T07:37:03.148Z,23.97
2018-12-13T07:39:31.583Z,24.00
2018-12-13T07:42:00.021Z,24.27
2018-12-13T07:44:29.280Z,24.20
2018-12-13T07:46:57.706Z,24.30
2018-12-13T07:49:26.132Z,24.07
2018-12-13T07:51:54.581Z,25.90
2018-12-13T07:54:23.281Z,26.27
2018-12-13T07:56:51.726Z,24.93
2018-12-13T07:59:20.145Z,27.23
2018-12-13T08:01:48.592Z,24.13
2018-12-13T08:04:17.023Z,24.07
2018-12-13T08:06:45.481Z,23.17
2018-12-13T08:09:13.952Z,23.63
2018-12-13T08:11:42.408Z,25.73
2018-12-13T08:14:10.889Z,23.27
2018-12-13T08:16:40.096Z,25.07
2018-12-13T08:19:08.523Z,25.00
2018-12-13T08:21:36.984Z,23.60
2018-12-13T08:24:05.408Z,24.90
2018-12-13T08:26:33.860Z,25.27
2018-12-13T08:29:02.284Z,24.13
2018-12-13T08:31:30.723Z,25.07
2018-12-13T08:33:59.149Z,24.93
2018-12-13T08:36:27.602Z,22.97
2018-12-13T08:38:56.026Z,25.03
2018-12-13T08:41:24.510Z,24.40
2018-12-13T08:43:52.949Z,24.40
2018-12-13T08:46:21.440Z,24.60
2018-12-13T08:48:49.877Z,25.43
2018-12-13T08:51:18.332Z,22.53
2018-12-13T08:53:46.752Z,24.37
2018-12-13T08:56:15.196Z,23.80
2018-12-13T08:58:43.618Z,23.00
2018-12-13T09:01:12.061Z,23.37
2018-12-13T09:03:40.476Z,24.00
2018-12-13T09:06:08.916Z,23.43
2018-12-13T09:08:37.868Z,25.13
2018-12-13T09:11:06.309Z,24.07
2018-12-13T09:13:34.732Z,24.97
2018-12-13T09:16:03.249Z,23.67
2018-12-13T09:18:31.696Z,24.47
2018-12-13T09:21:00.173Z,23.80
2018-12-13T09:23:28.662Z,23.73
2018-12-13T09:25:57.107Z,23.70
2018-12-13T09:28:25.536Z,24.40
2018-12-13T09:30:53.978Z,24.33
2018-12-13T09:33:22.401Z,25.07
2018-12-13T09:35:50.845Z,25.57
2018-12-13T09:38:19.276Z,23.77
2018-12-13T09:40:47.721Z,25.53
2018-12-13T09:43:16.163Z,25.43
2018-12-13T09:45:44.613Z,23.77
2018-12-13T09:48:13.033Z,25.13
2018-12-13T09:50:41.461Z,25.57
2018-12-13T09:53:09.909Z,25.40
2018-12-13T09:55:38.352Z,26.00
2018-12-13T09:58:07.053Z,24.83
2018-12-13T10:00:36.404Z,24.27
2018-12-13T10:03:04.909Z,23.80
2018-12-13T10:05:33.354Z,23.63
2018-12-13T10:08:05.737Z,24.17
2018-12-13T10:10:34.180Z,24.13
2018-12-13T10:13:03.909Z,23.70
2018-12-13T10:15:32.751Z,23.93
2018-12-13T10:18:01.227Z,24.53
2018-12-13T10:20:29.649Z,24.17
2018-12-13T10:23:01.281Z,24.97
2018-12-13T10:25:30.909Z,24.17
2018-12-13T10:27:59.417Z,23.47
2018-12-13T10:30:27.838Z,22.53
2018-12-13T10:32:56.286Z,23.50
2018-12-13T10:35:24.705Z,23.57
2018-12-13T10:37:53.138Z,23.07
2018-12-13T10:40:21.561Z,22.80
2018-12-13T10:42:50.001Z,25.03
2018-12-13T10:45:18.429Z,24.63
2018-12-13T10:47:46.867Z,22.63
2018-12-13T10:50:15.345Z,23.23
2018-12-13T10:52:43.791Z,22.90
2018-12-13T10:55:12.275Z,21.40
2018-12-13T10:57:40.777Z,24.03
2018-12-13T11:00:11.385Z,21.97
2018-12-13T11:02:52.792Z,22.53
2018-12-13T11:05:21.225Z,21.87
2018-12-13T11:07:50.535Z,21.77
2018-12-13T11:10:25.249Z,20.07
2018-12-13T11:12:49.436Z,21.93
2018-12-13T11:15:17.865Z,22.13
2018-12-13T11:20:20.681Z,21.83
2018-12-13T11:22:49.125Z,21.03
2018-12-13T11:25:17.569Z,19.20
2018-12-13T11:30:48.846Z,20.53
2018-12-13T11:33:17.351Z,21.80
2018-12-13T11:35:45.785Z,20.73
2018-12-13T11:38:14.225Z,19.57
2018-12-13T11:40:42.652Z,19.70
2018-12-13T11:43:11.136Z,19.97
2018-12-13T11:45:39.632Z,17.77
2018-12-13T11:48:08.137Z,18.00
2018-12-13T11:50:36.566Z,18.40
2018-12-13T11:53:05.013Z,18.07
2018-12-13T11:55:34.865Z,17.27
2018-12-13T11:58:03.623Z,17.13
2018-12-13T12:00:32.043Z,18.07
2018-12-13T12:03:00.483Z,16.17
2018-12-13T12:05:28.918Z,17.63
2018-12-13T12:07:57.381Z,17.77
2018-12-13T12:10:25.862Z,17.43
2018-12-13T12:12:54.318Z,14.93
2018-12-13T12:15:22.812Z,14.93
2018-12-13T12:17:51.268Z,15.77
2018-12-13T12:20:20.900Z,15.00
2018-12-13T12:22:49.347Z,14.30
2018-12-13T12:25:17.774Z,14.10
2018-12-13T12:27:46.243Z,14.40
2018-12-13T12:30:14.712Z,14.70
2018-12-13T12:32:43.148Z,13.30
2018-12-13T12:35:11.635Z,14.63
2018-12-13T12:37:40.071Z,14.13
2018-12-13T12:40:09.678Z,14.57
2018-12-13T12:42:38.116Z,14.03
2018-12-13T12:45:06.653Z,14.47
2018-12-13T12:47:35.100Z,14.83
2018-12-13T12:50:04.035Z,14.97
2018-12-13T12:52:32.482Z,12.90
2018-12-13T12:55:00.908Z,12.57
2018-12-13T12:57:29.361Z,13.80
2018-12-13T12:59:57.799Z,13.67
2018-12-13T13:02:26.224Z,13.53
2018-12-13T13:04:54.669Z,13.03
2018-12-13T13:07:23.138Z,12.73
2018-12-13T13:09:51.575Z,12.23
2018-12-13T13:12:22.744Z,12.67
2018-12-13T13:14:51.245Z,11.83
2018-12-13T13:17:19.669Z,11.77
2018-12-13T13:19:48.337Z,14.03
2018-12-13T13:22:17.351Z,12.30
2018-12-13T13:24:46.026Z,11.00
2018-12-13T13:27:14.444Z,11.37
2018-12-13T13:29:42.881Z,12.03
2018-12-13T13:32:11.304Z,11.93
2018-12-13T13:34:40.560Z,12.87
2018-12-13T13:37:08.990Z,12.63
2018-12-13T13:39:37.444Z,11.97
2018-12-13T13:42:05.865Z,12.67
2018-12-13T13:44:37.548Z,12.43
2018-12-13T13:47:06.024Z,11.93
2018-12-13T13:49:34.465Z,12.63
2018-12-13T13:52:03.589Z,12.03
2018-12-13T13:54:32.088Z,12.63
2018-12-13T13:57:00.557Z,13.03
2018-12-13T13:59:29.002Z,12.23
2018-12-13T14:01:57.430Z,11.50
2018-12-13T14:04:25.880Z,12.03
2018-12-13T14:06:55.214Z,11.43
2018-12-13T14:09:24.237Z,12.43
2018-12-13T14:11:52.657Z,10.37
2018-12-13T14:14:22.108Z,10.50
2018-12-13T14:16:50.588Z,11.80
2018-12-13T14:19:20.601Z,12.43
2018-12-13T14:21:49.746Z,11.37
2018-12-13T14:24:18.196Z,10.40
2018-12-13T14:26:46.633Z,10.13
2018-12-13T14:29:15.082Z,11.50
2018-12-13T14:31:43.512Z,11.07
2018-12-13T14:34:11.969Z,10.20
2018-12-13T14:36:40.388Z,9.53
2018-12-13T14:39:08.836Z,8.77
2018-12-13T14:41:37.264Z,10.03
2018-12-13T14:44:08.926Z,8.93
2018-12-13T14:46:37.348Z,9.20
2018-12-13T14:49:05.784Z,9.50
2018-12-13T14:51:34.201Z,8.93
2018-12-13T14:54:02.646Z,9.10
2018-12-13T14:56:31.067Z,9.60
2018-12-13T14:58:59.508Z,8.77
2018-12-13T15:01:27.935Z,9.23
2018-12-13T15:03:56.382Z,9.27
2018-12-13T15:06:26.192Z,9.90
2018-12-13T15:11:31.763Z,9.60
2018-12-13T15:14:00.229Z,9.50
2018-12-13T15:16:29.438Z,9.33
2018-12-13T15:18:57.880Z,9.10
2018-12-13T15:21:26.304Z,9.93
2018-12-13T15:23:54.753Z,10.00
2018-12-13T15:26:23.197Z,9.90
2018-12-13T15:28:51.648Z,10.07
2018-12-13T15:31:20.082Z,10.03
2018-12-13T15:33:48.534Z,10.57
2018-12-13T15:36:16.986Z,8.90
2018-12-13T15:38:46.326Z,9.70
2018-12-13T15:41:14.769Z,9.50
2018-12-13T15:43:43.222Z,9.43
2018-12-13T15:46:11.700Z,9.77
2018-12-13T15:48:40.128Z,10.27
2018-12-13T15:51:08.605Z,10.23
2018-12-13T15:53:37.029Z,9.87
2018-12-13T15:56:05.475Z,9.40
2018-12-13T15:58:33.895Z,10.00
2018-12-13T16:01:02.765Z,9.77
2018-12-13T16:03:31.218Z,11.30
2018-12-13T16:05:59.693Z,10.47
2018-12-13T16:08:28.114Z,11.00
2018-12-13T16:10:57.203Z,10.70
2018-12-13T16:13:25.647Z,11.63
2018-12-13T16:15:54.091Z,11.53
2018-12-13T16:18:22.507Z,11.07
2018-12-13T16:20:50.955Z,10.90
2018-12-13T16:23:19.382Z,11.33
2018-12-13T16:25:47.828Z,12.00
2018-12-13T16:28:16.252Z,11.20
2018-12-13T16:30:44.697Z,10.90
2018-12-13T16:33:13.125Z,10.03
2018-12-13T16:38:15.556Z,10.53
2018-12-13T16:40:44.007Z,11.33
2018-12-13T16:43:12.597Z,10.10
2018-12-13T16:45:41.310Z,10.17
2018-12-13T16:48:09.742Z,10.97
2018-12-13T16:50:38.180Z,10.63
2018-12-13T16:53:06.614Z,9.90
2018-12-13T16:55:35.135Z,11.00
2018-12-13T16:58:03.821Z,11.07
2018-12-13T17:00:32.324Z,11.03
2018-12-13T17:03:00.820Z,11.10
2018-12-13T17:05:29.272Z,10.87
2018-12-13T17:07:57.705Z,11.40
2018-12-13T17:10:26.175Z,14.60
2018-12-13T17:12:54.617Z,22.53
2018-12-13T17:15:23.063Z,14.30
2018-12-13T17:17:51.488Z,11.50
2018-12-13T17:20:19.929Z,12.43
2018-12-13T17:22:48.364Z,12.83
2018-12-13T17:25:16.864Z,11.40
2018-12-13T17:27:45.292Z,11.23
2018-12-13T17:30:13.736Z,11.87
2018-12-13T17:32:42.178Z,11.93
2018-12-13T17:35:10.755Z,11.27
2018-12-13T17:37:39.173Z,12.07
2018-12-13T17:40:07.677Z,12.00
2018-12-13T17:42:36.936Z,11.47
2018-12-13T17:45:06.180Z,10.80
2018-12-13T17:47:35.158Z,11.03
2018-12-13T17:50:03.665Z,10.97
2018-12-13T17:52:32.094Z,11.30
2018-12-13T17:55:01.573Z,10.93
2018-12-13T17:57:30.028Z,11.30
2018-12-13T17:59:58.464Z,11.90
2018-12-13T18:02:26.924Z,11.07
2018-12-13T18:04:55.380Z,11.00
2018-12-13T18:07:23.817Z,11.83
2018-12-13T18:09:52.241Z,12.23
2018-12-13T18:12:20.696Z,12.37
2018-12-13T18:14:50.170Z,11.00
2018-12-13T18:17:19.177Z,11.30
2018-12-13T18:19:47.601Z,10.57
2018-12-13T18:22:16.049Z,12.17
2018-12-13T18:24:44.481Z,11.77
2018-12-13T18:27:15.201Z,12.03
2018-12-13T18:29:44.057Z,10.93
2018-12-13T18:32:12.504Z,11.67
2018-12-13T18:34:40.921Z,11.30
2018-12-13T18:37:09.366Z,13.10
2018-12-13T18:39:37.788Z,11.83
2018-12-13T18:42:06.241Z,11.17
2018-12-13T18:44:34.693Z,11.07
2018-12-13T18:47:03.252Z,11.47
2018-12-13T18:49:31.676Z,11.67
2018-12-13T18:52:00.132Z,12.03
2018-12-13T18:54:28.587Z,11.67
2018-12-13T18:56:57.061Z,11.80
2018-12-13T18:59:25.494Z,12.97
2018-12-13T19:01:53.956Z,12.70
2018-12-13T19:04:22.388Z,11.73
2018-12-13T19:06:50.851Z,12.70
2018-12-13T19:09:19.309Z,12.47
2018-12-13T19:11:47.745Z,11.97
2018-12-13T19:14:16.163Z,13.23
2018-12-13T19:16:44.678Z,12.63
2018-12-13T19:19:13.112Z,12.43
2018-12-13T19:21:42.582Z,11.83
2018-12-13T19:24:11.022Z,10.67
2018-12-13T19:26:39.985Z,11.50
2018-12-13T19:29:08.433Z,11.33
2018-12-13T19:31:38.248Z,11.37
2018-12-13T19:34:07.111Z,12.27
2018-12-13T19:36:35.557Z,11.73
2018-12-13T19:39:05.759Z,12.10
2018-12-13T19:41:34.290Z,12.10
2018-12-13T19:44:02.773Z,12.97
2018-12-13T19:46:31.281Z,12.57
2018-12-13T19:48:59.703Z,11.53
2018-12-13T19:51:28.163Z,11.10
2018-12-13T19:53:56.590Z,13.03
2018-12-13T19:56:25.053Z,13.97
2018-12-13T19:58:53.501Z,12.37
2018-12-13T20:01:21.944Z,13.00
2018-12-13T20:03:50.390Z,13.43
2018-12-13T20:06:19.807Z,13.50
2018-12-13T20:08:48.236Z,14.57
2018-12-13T20:11:16.701Z,12.63
2018-12-13T20:13:45.128Z,13.33
2018-12-13T20:16:13.560Z,12.23
2018-12-13T20:18:42.092Z,12.47
2018-12-13T20:21:10.529Z,12.93
2018-12-13T20:23:38.973Z,13.03
2018-12-13T20:26:07.406Z,13.13
2018-12-13T20:28:35.853Z,12.30
2018-12-13T20:31:04.353Z,13.50
2018-12-13T20:33:32.798Z,12.37
2018-12-13T20:36:01.220Z,13.23
2018-12-13T20:38:29.678Z,12.43
2018-12-13T20:41:00.957Z,13.93
2018-12-13T20:43:28.586Z,12.73
2018-12-13T20:45:57.020Z,13.27
2018-12-13T20:48:25.473Z,13.13
2018-12-13T20:50:53.893Z,12.73
2018-12-13T20:53:22.336Z,14.10
2018-12-13T20:55:50.763Z,14.73
2018-12-13T20:58:19.213Z,14.30
2018-12-13T21:00:47.678Z,14.13
2018-12-13T21:03:16.166Z,14.30
2018-12-13T21:05:44.654Z,13.57
2018-12-13T21:08:13.138Z,14.53
2018-12-13T21:10:41.817Z,14.13
2018-12-13T21:13:10.264Z,13.57
2018-12-13T21:15:39.431Z,14.17
2018-12-13T21:18:07.884Z,13.93
2018-12-13T21:20:36.321Z,13.33
2018-12-13T21:23:04.778Z,14.33
2018-12-13T21:25:33.232Z,14.13
2018-12-13T21:28:01.680Z,14.43
2018-12-13T21:30:30.115Z,14.20
2018-12-13T21:32:58.563Z,16.17
2018-12-13T21:35:26.984Z,16.13
2018-12-13T21:37:55.429Z,15.10
2018-12-13T21:40:23.861Z,15.40
2018-12-13T21:42:52.302Z,16.03
2018-12-13T21:45:20.789Z,15.23
2018-12-13T21:47:49.260Z,15.13
2018-12-13T21:50:17.692Z,15.80
2018-12-13T21:52:46.148Z,15.97
2018-12-13T21:55:14.588Z,15.40
2018-12-13T21:57:43.044Z,15.20
2018-12-13T22:00:11.732Z,16.03
2018-12-13T22:02:40.190Z,15.03
2018-12-13T22:05:08.669Z,16.30
2018-12-13T22:07:37.129Z,16.53
2018-12-13T22:10:07.076Z,15.87
2018-12-13T22:12:35.538Z,16.57
2018-12-13T22:15:04.189Z,17.37
2018-12-13T22:17:32.624Z,15.43
2018-12-13T22:20:01.054Z,17.40
2018-12-13T22:22:30.735Z,17.27
2018-12-13T22:24:59.152Z,16.77
2018-12-13T22:27:27.587Z,16.07
2018-12-13T22:29:56.017Z,16.60
2018-12-13T22:32:24.474Z,15.67
2018-12-13T22:34:52.918Z,16.10
2018-12-13T22:37:21.547Z,16.67
2018-12-13T22:39:49.976Z,17.10
2018-12-13T22:42:18.425Z,19.67
2018-12-13T22:44:48.121Z,17.47
2018-12-13T22:47:16.552Z,17.20
2018-12-13T22:49:45.418Z,17.13
2018-12-13T22:52:13.856Z,16.63
2018-12-13T22:54:42.306Z,17.37
2018-12-13T22:57:11.957Z,18.00
2018-12-13T22:59:40.405Z,18.43
2018-12-13T23:02:08.837Z,18.03
2018-12-13T23:04:37.284Z,17.57
2018-12-13T23:07:05.712Z,18.43
2018-12-13T23:09:34.781Z,17.53
2018-12-13T23:12:03.210Z,16.33
2018-12-13T23:14:31.662Z,17.13
2018-12-13T23:17:00.081Z,17.30
2018-12-13T23:19:28.604Z,17.43
2018-12-13T23:21:57.028Z,18.63
2018-12-13T23:24:25.483Z,16.93
2018-12-13T23:26:53.900Z,18.63
2018-12-13T23:29:22.349Z,17.60
2018-12-13T23:31:51.303Z,17.23
2018-12-13T23:34:19.753Z,17.33
2018-12-13T23:36:48.201Z,17.67
2018-12-13T23:39:16.645Z,17.30
2018-12-13T23:41:45.066Z,17.13
2018-12-13T23:44:13.516Z,18.27
2018-12-13T23:46:41.958Z,17.90
2018-12-13T23:49:10.414Z,17.20
2018-12-13T23:51:38.891Z,18.77
2018-12-13T23:54:07.334Z,18.43
2018-12-13T23:56:35.758Z,17.57
2018-12-13T23:59:04.369Z,18.57
